Terminal Aerodrome Forecast
Issued by NWS Rapid City, SD

Home | Current Version | Previous Version | Graphics & Text | Print | Product List | Glossary On
Versions: 1 2 3 4 5 6 7 8 9 10 11 12 13 14 15 16 17
000
FTUS43 KUNR 252320
TAFRAP
TAF
KRAP 252320Z 2600/2624 02010KT P6SM VCSH SCT080
     FM260400 VRB04KT P6SM SCT150
     FM261700 07007KT P6SM VCSH SCT060=

USA.gov is the U.S. government's official web portal to all federal, state and local government web resources and services.